createdAt,value
2022-08-17T00:00:43.158Z,51.59
2022-08-17T00:03:13.620Z,49.68
2022-08-17T00:06:04.526Z,49.90
2022-08-17T00:08:35.118Z,49.48
2022-08-17T00:11:07.785Z,50.14
2022-08-17T00:13:40.706Z,49.89
2022-08-17T00:16:50.415Z,51.97
2022-08-17T00:19:13.836Z,51.24
2022-08-17T00:22:29.519Z,49.56
2022-08-17T00:24:41.178Z,49.06
2022-08-17T00:27:09.155Z,48.87
2022-08-17T00:29:37.894Z,50.45
2022-08-17T00:33:15.571Z,52.73
2022-08-17T00:34:54.136Z,50.71
2022-08-17T00:37:22.159Z,49.60
2022-08-17T00:39:50.326Z,51.34
2022-08-17T00:42:18.969Z,51.27
2022-08-17T00:44:47.098Z,49.79
2022-08-17T00:47:14.868Z,50.24
2022-08-17T00:49:42.662Z,49.44
2022-08-17T00:52:16.736Z,51.90
2022-08-17T00:54:46.218Z,51.75
2022-08-17T00:57:29.893Z,51.28
2022-08-17T01:00:26.731Z,52.55
2022-08-17T01:02:59.948Z,52.08
2022-08-17T01:05:30.048Z,50.69
2022-08-17T01:08:00.422Z,52.22
2022-08-17T01:10:59.918Z,51.20
2022-08-17T01:13:25.356Z,51.64
2022-08-17T01:15:57.761Z,51.17
2022-08-17T01:18:26.232Z,50.72
2022-08-17T01:20:57.833Z,50.46
2022-08-17T01:23:26.464Z,49.72
2022-08-17T01:25:56.432Z,50.73
2022-08-17T01:28:33.346Z,49.15
2022-08-17T01:31:14.541Z,50.59
2022-08-17T01:33:42.692Z,51.03
2022-08-17T01:36:10.704Z,49.54
2022-08-17T01:38:39.410Z,49.21
2022-08-17T01:41:12.495Z,48.77
2022-08-17T01:43:52.822Z,48.83
2022-08-17T01:46:28.291Z,48.69
2022-08-17T01:48:57.402Z,48.51
2022-08-17T01:51:32.745Z,48.41
2022-08-17T01:54:07.727Z,49.13
2022-08-17T01:56:39.269Z,51.90
2022-08-17T01:59:06.909Z,49.85
2022-08-17T02:01:35.466Z,49.01
2022-08-17T02:04:05.591Z,53.10
2022-08-17T02:06:53.661Z,61.75
2022-08-17T02:09:27.174Z,56.29
2022-08-17T02:12:38.575Z,60.91
2022-08-17T02:14:51.808Z,55.50
2022-08-17T02:17:19.472Z,52.70
2022-08-17T02:19:47.217Z,52.27
2022-08-17T02:22:15.585Z,50.75
2022-08-17T02:24:59.509Z,51.81
2022-08-17T02:27:29.448Z,51.43
2022-08-17T02:29:57.702Z,51.09
2022-08-17T02:32:28.434Z,53.29
2022-08-17T02:34:57.942Z,62.31
2022-08-17T02:37:28.251Z,63.13
2022-08-17T02:39:57.428Z,60.05
2022-08-17T02:42:33.921Z,59.45
2022-08-17T02:45:03.849Z,56.66
2022-08-17T02:47:34.700Z,57.47
2022-08-17T02:50:04.967Z,60.51
2022-08-17T02:52:43.269Z,57.52
2022-08-17T02:55:14.077Z,54.48
2022-08-17T02:57:41.725Z,53.36
2022-08-17T03:00:13.877Z,52.20
2022-08-17T03:02:43.422Z,51.27
2022-08-17T03:05:25.652Z,52.75
2022-08-17T03:07:53.596Z,52.14
2022-08-17T03:10:22.392Z,51.34
2022-08-17T03:12:50.759Z,50.43
2022-08-17T03:15:31.843Z,51.04
2022-08-17T03:18:00.646Z,50.58
2022-08-17T03:20:30.539Z,51.17
2022-08-17T03:23:02.915Z,51.17
2022-08-17T03:25:34.433Z,49.86
2022-08-17T03:28:02.878Z,50.91
2022-08-17T03:30:30.997Z,49.98
2022-08-17T03:33:01.699Z,49.89
2022-08-17T03:35:32.729Z,49.51
2022-08-17T03:38:01.368Z,50.48
2022-08-17T03:40:41.076Z,49.95
2022-08-17T03:43:19.658Z,51.25
2022-08-17T03:46:05.948Z,50.78
2022-08-17T03:49:12.179Z,50.68
2022-08-17T03:51:58.358Z,49.54
2022-08-17T03:54:45.011Z,49.34
2022-08-17T03:57:32.078Z,51.12
2022-08-17T04:00:00.308Z,55.09
2022-08-17T04:02:32.744Z,64.40
2022-08-17T04:05:00.939Z,64.37
2022-08-17T04:07:30.201Z,61.23
2022-08-17T04:09:59.271Z,55.72
2022-08-17T04:12:30.816Z,54.63
2022-08-17T04:14:59.380Z,53.08
2022-08-17T04:17:28.492Z,51.71
2022-08-17T04:19:57.000Z,52.53
2022-08-17T04:22:32.136Z,51.74
2022-08-17T04:25:10.163Z,52.06
2022-08-17T04:27:38.345Z,51.36
2022-08-17T04:30:07.996Z,52.47
2022-08-17T04:33:02.905Z,53.26
2022-08-17T04:35:41.081Z,54.91
2022-08-17T04:38:13.005Z,52.34
2022-08-17T04:40:59.729Z,51.75
2022-08-17T04:43:38.097Z,51.59
2022-08-17T04:46:09.688Z,57.44
2022-08-17T04:48:41.509Z,54.32
2022-08-17T04:51:17.370Z,52.79
2022-08-17T04:53:54.187Z,53.35
2022-08-17T04:56:25.835Z,53.04
2022-08-17T04:59:08.865Z,53.60
2022-08-17T05:01:38.885Z,57.44
2022-08-17T05:04:20.984Z,55.92
2022-08-17T05:07:00.953Z,57.20
2022-08-17T05:09:28.983Z,55.09
2022-08-17T05:12:02.164Z,53.53
2022-08-17T05:14:32.914Z,54.54
2022-08-17T05:17:09.668Z,56.51
2022-08-17T05:19:39.451Z,52.76
2022-08-17T05:22:07.177Z,51.94
2022-08-17T05:24:42.645Z,52.12
2022-08-17T05:27:19.606Z,51.08
2022-08-17T05:29:47.434Z,55.83
2022-08-17T05:32:39.174Z,53.06
2022-08-17T05:35:04.644Z,51.34
2022-08-17T05:37:32.311Z,52.42
2022-08-17T05:40:00.299Z,52.04
2022-08-17T05:42:28.122Z,50.97
2022-08-17T05:44:58.529Z,50.83
2022-08-17T05:47:27.087Z,51.31
2022-08-17T05:49:54.909Z,52.44
2022-08-17T05:52:40.486Z,51.49
2022-08-17T05:55:24.557Z,52.05
2022-08-17T05:58:06.153Z,50.63
2022-08-17T06:00:59.462Z,51.16
2022-08-17T06:04:10.751Z,50.48
2022-08-17T06:07:13.174Z,56.28
2022-08-17T06:09:56.167Z,53.21
2022-08-17T06:13:00.229Z,52.75
2022-08-17T06:15:55.178Z,52.51
2022-08-17T06:18:27.056Z,53.22
2022-08-17T06:21:05.155Z,56.25
2022-08-17T06:23:37.809Z,55.60
2022-08-17T06:26:16.387Z,53.88
2022-08-17T06:28:56.730Z,53.20
2022-08-17T06:31:32.352Z,56.04
2022-08-17T06:34:03.035Z,53.95
2022-08-17T06:36:55.994Z,53.04
2022-08-17T06:39:47.611Z,51.55
2022-08-17T06:42:59.945Z,54.72
2022-08-17T06:45:35.139Z,53.11
2022-08-17T06:48:28.903Z,51.16
2022-08-17T06:51:43.234Z,50.97
2022-08-17T06:54:27.518Z,54.18
2022-08-17T06:57:19.896Z,51.66
2022-08-17T07:00:23.072Z,51.84
2022-08-17T07:03:06.673Z,51.08
2022-08-17T07:05:46.712Z,50.35
2022-08-17T07:08:35.192Z,52.07
2022-08-17T07:11:16.254Z,50.58
2022-08-17T07:13:51.334Z,50.70
2022-08-17T07:16:25.946Z,49.73
2022-08-17T07:18:56.326Z,52.50
2022-08-17T07:21:59.713Z,52.64
2022-08-17T07:25:05.842Z,51.41
2022-08-17T07:27:40.224Z,52.75
2022-08-17T07:30:19.324Z,51.69
2022-08-17T07:32:57.286Z,51.22
2022-08-17T07:35:44.602Z,49.93
2022-08-17T07:38:25.530Z,49.88
2022-08-17T07:41:03.606Z,50.10
2022-08-17T07:43:47.850Z,49.94
2022-08-17T07:46:37.222Z,48.70
2022-08-17T07:49:07.705Z,48.55
2022-08-17T07:51:45.530Z,50.28
2022-08-17T07:54:16.485Z,49.19
2022-08-17T07:56:48.259Z,50.24
2022-08-17T07:59:23.351Z,51.48
2022-08-17T08:01:55.543Z,48.98
2022-08-17T08:05:00.258Z,49.06
2022-08-17T08:07:22.420Z,48.86
2022-08-17T08:10:00.667Z,49.24
2022-08-17T08:12:43.485Z,50.42
2022-08-17T08:15:22.208Z,49.76
2022-08-17T08:17:55.297Z,49.56
2022-08-17T08:20:52.904Z,48.63
2022-08-17T08:24:04.364Z,50.52
2022-08-17T08:26:59.626Z,49.88
2022-08-17T08:29:52.656Z,50.71
2022-08-17T08:32:54.124Z,49.68
2022-08-17T08:35:40.332Z,48.78
2022-08-17T08:38:23.457Z,48.86
2022-08-17T08:41:44.716Z,48.02
2022-08-17T08:45:04.547Z,49.10
2022-08-17T08:48:12.729Z,48.23
2022-08-17T08:51:22.826Z,48.31
2022-08-17T08:53:59.370Z,49.49
2022-08-17T08:57:19.851Z,48.89
2022-08-17T09:00:17.481Z,47.08
2022-08-17T09:03:53.132Z,47.26
2022-08-17T09:06:43.392Z,48.93
2022-08-17T09:09:41.877Z,48.40
2022-08-17T09:12:25.868Z,46.99
2022-08-17T09:15:34.928Z,46.87
2022-08-17T09:19:02.431Z,45.90
2022-08-17T09:21:47.988Z,46.05
2022-08-17T09:24:27.705Z,46.33
2022-08-17T09:27:32.216Z,45.13
2022-08-17T09:30:08.450Z,45.60
2022-08-17T09:32:49.795Z,45.20
2022-08-17T09:35:45.213Z,44.83
2022-08-17T09:39:00.724Z,44.85
2022-08-17T09:41:37.564Z,43.73
2022-08-17T09:44:14.137Z,44.34
2022-08-17T09:47:11.138Z,40.06
2022-08-17T09:49:53.602Z,41.75
2022-08-17T09:52:27.767Z,42.31
2022-08-17T09:54:57.174Z,42.31
2022-08-17T09:57:34.392Z,41.54
2022-08-17T10:00:17.939Z,38.35
2022-08-17T10:03:26.273Z,37.11
2022-08-17T10:06:35.626Z,35.91
2022-08-17T10:14:37.412Z,35.88
2022-08-17T10:17:09.227Z,36.57
2022-08-17T10:20:12.781Z,36.90
2022-08-17T10:23:15.127Z,36.88
2022-08-17T10:26:06.896Z,37.80
2022-08-17T10:28:51.101Z,35.84
2022-08-17T10:31:35.412Z,36.32
2022-08-17T10:34:41.224Z,34.98
2022-08-17T10:38:09.720Z,100.00
2022-08-17T10:41:02.109Z,100.00
2022-08-17T10:44:40.517Z,100.00
2022-08-17T10:47:15.005Z,100.00
2022-08-17T10:49:53.579Z,100.00
2022-08-17T10:52:48.583Z,34.79
2022-08-17T10:55:18.946Z,34.16
2022-08-17T10:57:50.092Z,33.58
2022-08-17T11:00:25.520Z,33.86
2022-08-17T11:02:57.297Z,32.82
2022-08-17T11:05:44.376Z,31.30
2022-08-17T11:08:38.447Z,29.49
2022-08-17T11:11:35.761Z,30.06
2022-08-17T11:14:25.731Z,30.77
2022-08-17T11:17:53.269Z,29.72
2022-08-17T11:20:52.512Z,29.12
2022-08-17T11:24:21.050Z,30.18
2022-08-17T11:27:05.447Z,29.16
2022-08-17T11:29:51.966Z,31.30
2022-08-17T11:32:48.629Z,27.11
2022-08-17T11:35:20.754Z,31.61
2022-08-17T11:38:16.873Z,32.66
2022-08-17T11:41:31.456Z,32.72
2022-08-17T11:44:22.128Z,31.58
2022-08-17T11:47:37.617Z,31.31
2022-08-17T11:50:39.127Z,31.11
2022-08-17T11:53:07.191Z,30.14
2022-08-17T11:55:38.458Z,30.64
2022-08-17T11:58:29.980Z,30.50
2022-08-17T12:01:03.522Z,29.91
2022-08-17T12:03:33.930Z,30.65
2022-08-17T12:06:37.007Z,29.39
2022-08-17T12:09:18.895Z,29.32
2022-08-17T12:12:13.305Z,29.35
2022-08-17T12:15:12.668Z,30.72
2022-08-17T12:17:42.904Z,28.79
2022-08-17T12:20:33.417Z,30.34
2022-08-17T12:23:06.939Z,31.89
2022-08-17T12:26:03.405Z,31.69
2022-08-17T12:28:35.446Z,32.19
2022-08-17T12:31:07.296Z,33.27
2022-08-17T12:33:37.524Z,32.92
2022-08-17T12:36:07.600Z,32.89
2022-08-17T12:38:37.632Z,33.67
2022-08-17T12:41:36.501Z,33.86
2022-08-17T12:44:21.218Z,33.21
2022-08-17T12:47:06.922Z,33.46
2022-08-17T12:49:38.357Z,33.51
2022-08-17T12:52:13.210Z,33.67
2022-08-17T12:54:53.575Z,33.59
2022-08-17T12:57:34.215Z,33.67
2022-08-17T13:00:27.624Z,32.96
2022-08-17T13:03:01.054Z,32.65
2022-08-17T13:06:00.616Z,32.89
2022-08-17T13:08:35.954Z,32.35
2022-08-17T13:11:14.283Z,31.84
2022-08-17T13:13:46.318Z,31.29
2022-08-17T13:16:17.213Z,32.46
2022-08-17T13:19:15.156Z,33.00
2022-08-17T13:21:56.500Z,33.96
2022-08-17T13:24:38.270Z,34.75
2022-08-17T13:27:10.300Z,35.02
2022-08-17T13:29:44.138Z,36.72
2022-08-17T13:32:13.415Z,36.96
2022-08-17T13:35:12.492Z,37.64
2022-08-17T13:38:09.335Z,36.70
2022-08-17T13:40:51.831Z,38.58
2022-08-17T13:43:50.458Z,38.38
2022-08-17T13:46:19.813Z,38.38
2022-08-17T13:48:59.333Z,37.31
2022-08-17T13:51:31.648Z,37.82
2022-08-17T13:54:01.664Z,38.04
2022-08-17T13:57:04.410Z,38.18
2022-08-17T13:59:53.041Z,38.17
2022-08-17T14:02:32.331Z,37.45
2022-08-17T14:05:01.974Z,38.58
2022-08-17T14:07:37.094Z,38.48
2022-08-17T14:10:17.693Z,38.33
2022-08-17T14:12:46.425Z,38.02
2022-08-17T14:15:16.769Z,37.43
2022-08-17T14:17:44.522Z,37.58
2022-08-17T14:20:13.585Z,37.04
2022-08-17T14:22:46.168Z,38.57
2022-08-17T14:25:19.525Z,39.58
2022-08-17T14:27:53.677Z,38.67
2022-08-17T14:30:40.863Z,38.67
2022-08-17T14:33:14.249Z,39.20
2022-08-17T14:35:54.568Z,38.13
2022-08-17T14:38:47.974Z,38.28
2022-08-17T14:41:22.320Z,38.44
2022-08-17T14:44:16.164Z,38.35
2022-08-17T14:46:44.973Z,37.73
2022-08-17T14:49:37.948Z,37.19
2022-08-17T14:52:12.358Z,35.90
2022-08-17T14:54:45.578Z,36.88
2022-08-17T14:57:25.778Z,36.87
2022-08-17T15:00:02.168Z,36.42
2022-08-17T15:02:31.007Z,36.05
2022-08-17T15:05:01.714Z,35.15
2022-08-17T15:07:30.290Z,33.82
2022-08-17T15:10:03.812Z,31.80
2022-08-17T15:12:33.703Z,29.95
2022-08-17T15:15:05.095Z,29.90
2022-08-17T15:17:44.801Z,28.74
2022-08-17T15:20:26.261Z,27.40
2022-08-17T15:22:55.520Z,100.00
2022-08-17T15:25:27.496Z,100.00
2022-08-17T15:27:55.898Z,22.67
2022-08-17T15:30:25.814Z,24.04
2022-08-17T15:32:56.531Z,23.71
2022-08-17T15:35:29.398Z,23.71
2022-08-17T15:38:09.826Z,22.72
2022-08-17T15:40:43.135Z,22.72
2022-08-17T15:43:14.541Z,22.05
2022-08-17T15:45:42.962Z,22.05
2022-08-17T15:48:11.326Z,23.76
2022-08-17T15:50:39.984Z,23.02
2022-08-17T15:53:07.937Z,25.08
2022-08-17T15:55:37.764Z,25.08
2022-08-17T15:58:06.936Z,24.42
2022-08-17T16:00:53.467Z,100.00
2022-08-17T16:03:58.269Z,100.00
2022-08-17T16:06:13.737Z,100.00
2022-08-17T16:08:43.889Z,100.00
2022-08-17T16:11:14.362Z,100.00
2022-08-17T16:13:47.304Z,23.33
2022-08-17T16:16:24.180Z,23.36
2022-08-17T16:18:54.577Z,23.03
2022-08-17T16:21:29.446Z,22.94
2022-08-17T16:24:03.430Z,21.87
2022-08-17T16:26:32.530Z,23.06
2022-08-17T16:29:05.258Z,23.64
2022-08-17T16:31:35.902Z,22.50
2022-08-17T16:36:55.182Z,24.91
2022-08-17T16:39:26.999Z,26.61
2022-08-17T16:41:55.969Z,27.13
2022-08-17T16:44:25.625Z,27.59
2022-08-17T16:46:53.470Z,28.51
2022-08-17T16:49:35.489Z,29.49
2022-08-17T16:52:11.669Z,29.93
2022-08-17T16:54:43.344Z,29.11
2022-08-17T16:57:12.829Z,29.57
2022-08-17T16:59:44.949Z,28.65
2022-08-17T17:02:32.453Z,29.92
2022-08-17T17:05:57.946Z,100.00
2022-08-17T17:08:40.644Z,29.74
2022-08-17T17:11:25.321Z,30.97
2022-08-17T17:14:02.047Z,29.74
2022-08-17T17:16:45.669Z,30.73
2022-08-17T17:19:38.830Z,29.87
2022-08-17T17:22:41.913Z,29.87
2022-08-17T17:25:24.792Z,31.64
2022-08-17T17:28:28.953Z,32.20
2022-08-17T17:31:06.312Z,31.76
2022-08-17T17:33:53.739Z,31.51
2022-08-17T17:36:32.567Z,31.91
2022-08-17T17:39:10.706Z,32.56
2022-08-17T17:41:47.143Z,31.80
2022-08-17T17:44:20.516Z,32.74
2022-08-17T17:47:06.687Z,32.49
2022-08-17T17:49:45.013Z,32.42
2022-08-17T17:52:53.292Z,35.54
2022-08-17T17:55:59.410Z,36.20
2022-08-17T17:58:33.708Z,36.67
2022-08-17T18:01:35.691Z,37.94
2022-08-17T18:04:22.690Z,38.19
2022-08-17T18:07:09.933Z,37.85
2022-08-17T18:09:51.640Z,38.13
2022-08-17T18:12:51.048Z,38.05
2022-08-17T18:16:00.610Z,38.73
2022-08-17T18:18:38.280Z,38.01
2022-08-17T18:21:27.526Z,38.59
2022-08-17T18:23:59.712Z,39.03
2022-08-17T18:26:57.013Z,39.71
2022-08-17T18:29:31.771Z,40.97
2022-08-17T18:32:19.589Z,40.73
2022-08-17T18:34:50.700Z,41.53
2022-08-17T18:37:35.986Z,42.01
2022-08-17T18:40:23.327Z,41.73
2022-08-17T18:43:06.331Z,42.21
2022-08-17T18:45:46.952Z,42.83
2022-08-17T18:48:28.243Z,44.89
2022-08-17T18:51:21.502Z,44.75
2022-08-17T18:54:24.678Z,46.50
2022-08-17T18:56:58.784Z,46.38
2022-08-17T18:59:49.833Z,45.29
2022-08-17T19:02:43.374Z,48.29
2022-08-17T19:05:30.204Z,46.79
2022-08-17T19:08:28.387Z,47.85
2022-08-17T19:11:06.754Z,46.46
2022-08-17T19:13:40.185Z,46.24
2022-08-17T19:16:14.970Z,47.71
2022-08-17T19:19:00.130Z,47.58
2022-08-17T19:21:58.911Z,49.66
2022-08-17T19:24:29.597Z,48.92
2022-08-17T19:27:16.562Z,49.84
2022-08-17T19:29:57.786Z,51.64
2022-08-17T19:32:31.072Z,52.29
2022-08-17T19:35:00.495Z,53.57
2022-08-17T19:38:13.310Z,53.46
2022-08-17T19:44:32.846Z,50.68
2022-08-17T19:47:53.376Z,51.92
2022-08-17T19:50:25.485Z,53.24
2022-08-17T19:53:13.564Z,52.13
2022-08-17T20:03:05.921Z,55.14
2022-08-17T20:06:01.406Z,54.71
2022-08-17T20:09:07.243Z,55.81
2022-08-17T20:11:52.889Z,57.76
2022-08-17T20:14:25.318Z,55.10
2022-08-17T20:17:02.457Z,55.40
2022-08-17T20:19:53.071Z,56.73
2022-08-17T20:22:30.915Z,55.35
2022-08-17T20:25:30.478Z,55.11
2022-08-17T20:28:08.060Z,58.03
2022-08-17T20:30:41.709Z,57.61
2022-08-17T20:33:32.919Z,55.64
2022-08-17T20:36:24.655Z,57.71
2022-08-17T20:38:56.068Z,58.22
2022-08-17T20:41:28.951Z,57.74
2022-08-17T20:43:56.577Z,56.83
2022-08-17T20:46:37.499Z,55.88
2022-08-17T20:49:14.717Z,59.94
2022-08-17T20:52:19.567Z,56.48
2022-08-17T20:54:57.251Z,61.07
2022-08-17T20:57:31.713Z,58.22
2022-08-17T21:00:29.773Z,59.41
2022-08-17T21:03:22.748Z,59.32
2022-08-17T21:06:16.927Z,60.47
2022-08-17T21:09:29.773Z,60.59
2022-08-17T21:12:04.168Z,64.60
2022-08-17T21:14:44.412Z,63.92
2022-08-17T21:18:06.571Z,63.57
2022-08-17T21:21:03.822Z,61.74
2022-08-17T21:23:58.859Z,64.62
2022-08-17T21:27:00.087Z,64.73
2022-08-17T21:29:33.807Z,60.81
2022-08-17T21:32:01.875Z,61.23
2022-08-17T21:34:42.517Z,60.99
2022-08-17T21:37:24.155Z,61.43
2022-08-17T21:40:10.318Z,61.19
2022-08-17T21:42:53.756Z,63.22
2022-08-17T21:45:27.986Z,67.40
2022-08-17T21:48:09.261Z,65.47
2022-08-17T21:50:37.822Z,64.35
2022-08-17T21:53:05.969Z,65.00
2022-08-17T21:55:34.639Z,67.40
2022-08-17T21:58:32.627Z,65.74
2022-08-17T22:01:25.800Z,63.94
2022-08-17T22:04:14.168Z,63.21
2022-08-17T22:06:57.600Z,62.94
2022-08-17T22:09:32.015Z,62.86
2022-08-17T22:12:30.540Z,63.24
2022-08-17T22:15:05.741Z,67.55
2022-08-17T22:17:41.126Z,70.78
2022-08-17T22:20:14.901Z,70.41
2022-08-17T22:23:04.626Z,64.97
2022-08-17T22:25:40.961Z,65.25
2022-08-17T22:28:45.585Z,67.97
2022-08-17T22:31:27.744Z,65.65
2022-08-17T22:33:59.851Z,67.57
2022-08-17T22:36:35.253Z,68.87
2022-08-17T22:39:08.962Z,68.69
2022-08-17T22:41:50.408Z,67.04
2022-08-17T22:44:27.002Z,68.65
2022-08-17T22:47:16.869Z,66.80
2022-08-17T22:49:53.783Z,66.37
2022-08-17T22:53:02.410Z,63.08
2022-08-17T22:55:50.659Z,60.91
2022-08-17T22:58:42.391Z,66.30
2022-08-17T23:01:28.289Z,67.47
2022-08-17T23:03:59.372Z,67.06
2022-08-17T23:06:32.386Z,67.69
2022-08-17T23:09:03.434Z,68.26
2022-08-17T23:11:58.683Z,68.45
2022-08-17T23:14:31.523Z,65.51
2022-08-17T23:16:59.439Z,65.37
2022-08-17T23:19:31.543Z,66.47
2022-08-17T23:22:04.101Z,68.79
2022-08-17T23:24:38.004Z,70.09
2022-08-17T23:27:07.550Z,68.63
2022-08-17T23:29:39.131Z,69.99
2022-08-17T23:32:33.772Z,69.08
2022-08-17T23:35:01.382Z,65.28
2022-08-17T23:37:29.790Z,64.08
2022-08-17T23:39:57.547Z,65.27
2022-08-17T23:42:25.716Z,64.88
2022-08-17T23:44:53.337Z,69.37
2022-08-17T23:47:21.294Z,62.48
2022-08-17T23:49:49.068Z,65.51
2022-08-17T23:52:22.669Z,61.96
2022-08-17T23:54:50.353Z,64.02
2022-08-17T23:57:20.484Z,67.03
